CheckWX is a tool to help pilots better visualize weather data.  It is not intended as a substitute for an official pre-flight weather briefing.

14:22:09 UTC

KYIP TAF
Willow Run Airport
Detroit, Michigan, USA
KYIP 201125Z 2012/2112 24010KT P6SM SCT100 BKN250 FM201800 22013G20KT P6SM SCT045 BKN100 TEMPO 2021/2101 2SM TSRA OVC030CB FM210200 25009KT P6SM SCT080 BKN150

Jul-20@
12:00 UTC

Jul-20 @ 12:00 UTC

Jul-20@
18:00 UTC

Jul-20 @ 18:00 UTC

KYIP 201125Z 2012/2112 24010KT P6SM SCT100 BKN250
Wind
  • 240° at 10 KTS
Cloud Levels
  • Scattered at 10,000' AGL
  • Broken at 25,000' AGL

Jul-20@
18:00 UTC

Jul-20 @ 18:00 UTC

Jul-21@
02:00 UTC

Jul-21 @ 02:00 UTC

FM201800 22013G20KT P6SM SCT045 BKN100

From

From Standard forecast or significant change

Wind
  • 220° at 13 KTS
  • {Gusting to 20 KTS
Cloud Levels
  • Scattered at 4,500' AGL
  • Broken at 10,000' AGL

Jul-20@
21:00 UTC

Jul-20 @ 21:00 UTC

Jul-21@
01:00 UTC

Jul-21 @ 01:00 UTC

TEMPO 2021/2101 2SM TSRA OVC030CB

Temporary

Temporary Changes expected for less than half the time period

Conditions
Thunderstorm, Rain
Cloud Levels
  • Overcast at 3,000' AGL

Jul-21@
02:00 UTC

Jul-21 @ 02:00 UTC

Jul-21@
12:00 UTC

Jul-21 @ 12:00 UTC

FM210200 25009KT P6SM SCT080 BKN150

From

From Standard forecast or significant change

Wind
  • 250° at 9 KTS
Cloud Levels
  • Scattered at 8,000' AGL
  • Broken at 15,000' AGL